createdAt,value
2022-12-08T00:01:11.677Z,53.10
2022-12-08T00:03:39.018Z,53.10
2022-12-08T00:06:25.306Z,53.10
2022-12-08T00:09:10.926Z,53.20
2022-12-08T00:11:39.053Z,53.10
2022-12-08T00:14:05.813Z,53.20
2022-12-08T00:16:32.584Z,53.10
2022-12-08T00:18:59.434Z,53.10
2022-12-08T00:21:26.159Z,53.10
2022-12-08T00:23:55.922Z,53.10
2022-12-08T00:26:22.713Z,53.20
2022-12-08T00:28:49.536Z,53.20
2022-12-08T00:31:16.316Z,53.10
2022-12-08T00:33:43.103Z,53.10
2022-12-08T00:36:12.628Z,53.10
2022-12-08T00:38:40.819Z,53.10
2022-12-08T00:41:09.120Z,53.10
2022-12-08T00:43:35.857Z,53.10
2022-12-08T00:46:02.696Z,53.10
2022-12-08T00:48:31.847Z,53.10
2022-12-08T00:50:58.564Z,53.00
2022-12-08T00:53:25.331Z,53.10
2022-12-08T00:55:52.117Z,53.10
2022-12-08T00:58:18.809Z,53.10
2022-12-08T01:00:45.597Z,53.00
2022-12-08T01:03:15.519Z,53.00
2022-12-08T01:05:42.270Z,53.00
2022-12-08T01:08:09.470Z,53.10
2022-12-08T01:10:37.218Z,53.10
2022-12-08T01:13:04.285Z,53.00
2022-12-08T01:15:31.043Z,53.00
2022-12-08T01:17:57.843Z,53.00
2022-12-08T01:20:24.632Z,53.00
2022-12-08T01:22:51.396Z,53.00
2022-12-08T01:25:18.208Z,53.00
2022-12-08T01:27:44.973Z,53.00
2022-12-08T01:30:13.284Z,53.00
2022-12-08T01:32:40.028Z,53.00
2022-12-08T01:35:07.049Z,52.90
2022-12-08T01:37:33.773Z,52.90
2022-12-08T01:40:00.554Z,52.90
2022-12-08T01:42:27.425Z,52.90
2022-12-08T01:44:59.233Z,52.90
2022-12-08T01:47:31.000Z,52.90
2022-12-08T01:49:58.032Z,52.90
2022-12-08T01:52:37.296Z,52.90
2022-12-08T01:55:53.466Z,52.90
2022-12-08T01:58:28.741Z,52.90
2022-12-08T02:00:55.712Z,52.80
2022-12-08T02:03:42.512Z,52.80
2022-12-08T02:06:10.134Z,52.80
2022-12-08T02:08:40.182Z,52.80
2022-12-08T02:11:11.150Z,52.80
2022-12-08T02:13:39.066Z,52.80
2022-12-08T02:16:23.890Z,52.80
2022-12-08T02:19:30.881Z,52.80
2022-12-08T02:22:07.358Z,52.80
2022-12-08T02:24:52.976Z,52.70
2022-12-08T02:27:40.168Z,52.70
2022-12-08T02:30:26.731Z,52.70
2022-12-08T02:33:15.223Z,52.70
2022-12-08T02:36:11.654Z,52.60
2022-12-08T02:38:56.259Z,52.70
2022-12-08T02:41:46.435Z,52.60
2022-12-08T02:44:17.506Z,52.60
2022-12-08T02:47:05.811Z,52.60
2022-12-08T02:49:33.626Z,52.60
2022-12-08T02:52:12.267Z,52.60
2022-12-08T02:54:46.478Z,52.60
2022-12-08T02:57:31.042Z,52.50
2022-12-08T03:00:33.635Z,52.50
2022-12-08T03:03:41.591Z,52.50
2022-12-08T03:06:28.280Z,52.50
2022-12-08T03:09:27.940Z,52.50
2022-12-08T03:12:01.524Z,52.50
2022-12-08T03:14:30.345Z,52.50
2022-12-08T03:16:59.337Z,52.40
2022-12-08T03:19:31.371Z,52.40
2022-12-08T03:22:03.258Z,52.40
2022-12-08T03:24:37.085Z,52.40
2022-12-08T03:27:13.946Z,52.40
2022-12-08T03:29:41.001Z,52.30
2022-12-08T03:32:10.258Z,52.30
2022-12-08T03:34:39.559Z,52.30
2022-12-08T03:37:08.659Z,52.30
2022-12-08T03:39:35.414Z,52.20
2022-12-08T03:42:02.126Z,52.20
2022-12-08T03:44:28.902Z,52.30
2022-12-08T03:46:55.589Z,52.30
2022-12-08T03:49:22.369Z,52.30
2022-12-08T03:51:49.122Z,52.20
2022-12-08T03:54:15.861Z,52.20
2022-12-08T03:56:42.556Z,52.10
2022-12-08T03:59:10.480Z,52.10
2022-12-08T04:01:37.780Z,52.10
2022-12-08T04:04:04.689Z,52.10
2022-12-08T04:06:31.883Z,52.10
2022-12-08T04:08:59.425Z,52.10
2022-12-08T04:11:26.141Z,52.10
2022-12-08T04:13:52.962Z,52.00
2022-12-08T04:16:22.566Z,52.00
2022-12-08T04:18:49.524Z,52.00
2022-12-08T04:21:17.078Z,52.10
2022-12-08T04:23:44.755Z,52.10
2022-12-08T04:26:11.663Z,52.00
2022-12-08T04:28:38.543Z,52.00
2022-12-08T04:31:05.852Z,52.00
2022-12-08T04:33:32.765Z,52.00
2022-12-08T04:35:59.468Z,52.00
2022-12-08T04:38:26.880Z,52.00
2022-12-08T04:40:53.728Z,51.90
2022-12-08T04:43:20.582Z,51.90
2022-12-08T04:45:47.508Z,52.00
2022-12-08T04:48:14.635Z,51.90
2022-12-08T04:50:43.783Z,51.90
2022-12-08T04:53:11.316Z,51.90
2022-12-08T04:55:45.785Z,51.90
2022-12-08T04:58:14.916Z,51.90
2022-12-08T05:00:42.198Z,51.80
2022-12-08T05:03:10.123Z,51.80
2022-12-08T05:05:36.877Z,51.90
2022-12-08T05:08:04.320Z,51.90
2022-12-08T05:10:31.709Z,51.90
2022-12-08T05:12:59.422Z,51.90
2022-12-08T05:15:26.234Z,51.90
2022-12-08T05:17:53.049Z,51.80
2022-12-08T05:20:20.042Z,52.40
2022-12-08T05:22:46.807Z,51.80
2022-12-08T05:25:13.571Z,51.90
2022-12-08T05:27:40.301Z,51.90
2022-12-08T05:30:07.675Z,51.90
2022-12-08T05:32:34.619Z,51.80
2022-12-08T05:35:01.386Z,51.90
2022-12-08T05:37:28.112Z,51.80
2022-12-08T05:39:54.906Z,51.90
2022-12-08T05:42:24.740Z,51.90
2022-12-08T05:44:52.260Z,51.90
2022-12-08T05:47:19.219Z,51.90
2022-12-08T05:49:46.037Z,52.10
2022-12-08T05:52:12.785Z,51.90
2022-12-08T05:54:39.558Z,51.80
2022-12-08T05:57:06.522Z,51.90
2022-12-08T05:59:33.297Z,51.80
2022-12-08T06:02:00.075Z,51.80
2022-12-08T06:04:27.019Z,51.80
2022-12-08T06:06:53.798Z,51.80
2022-12-08T06:09:20.534Z,51.80
2022-12-08T06:11:47.448Z,51.80
2022-12-08T06:14:14.178Z,51.80
2022-12-08T06:16:43.372Z,51.80
2022-12-08T06:19:10.195Z,51.80
2022-12-08T06:21:37.083Z,51.80
2022-12-08T06:24:03.913Z,51.90
2022-12-08T06:26:30.624Z,51.80
2022-12-08T06:29:00.692Z,51.80
2022-12-08T06:31:28.080Z,51.70
2022-12-08T06:33:55.360Z,51.90
2022-12-08T06:36:24.742Z,51.80
2022-12-08T06:38:51.928Z,51.80
2022-12-08T06:41:19.007Z,51.80
2022-12-08T06:43:46.000Z,51.80
2022-12-08T06:46:15.937Z,51.80
2022-12-08T06:48:42.883Z,51.80
2022-12-08T06:51:15.736Z,51.80
2022-12-08T06:53:43.326Z,51.80
2022-12-08T06:56:11.292Z,51.80
2022-12-08T06:58:38.402Z,51.80
2022-12-08T07:01:11.604Z,51.80
2022-12-08T07:03:40.027Z,51.80
2022-12-08T07:06:07.362Z,51.80
2022-12-08T07:08:34.827Z,51.90
2022-12-08T07:11:11.296Z,51.80
2022-12-08T07:13:39.539Z,51.80
2022-12-08T07:16:11.307Z,51.80
2022-12-08T07:18:38.670Z,51.80
2022-12-08T07:21:10.726Z,51.80
2022-12-08T07:23:37.705Z,51.80
2022-12-08T07:26:07.782Z,51.80
2022-12-08T07:28:36.445Z,51.80
2022-12-08T07:31:04.277Z,51.80
2022-12-08T07:33:31.927Z,51.80
2022-12-08T07:36:03.141Z,51.90
2022-12-08T07:38:30.604Z,51.80
2022-12-08T07:40:58.253Z,51.80
2022-12-08T07:43:24.987Z,51.80
2022-12-08T07:45:54.417Z,51.80
2022-12-08T07:48:21.274Z,51.80
2022-12-08T07:50:48.122Z,51.80
2022-12-08T07:53:15.167Z,51.80
2022-12-08T07:55:43.471Z,51.80
2022-12-08T07:58:11.382Z,51.90
2022-12-08T08:00:38.481Z,51.80
2022-12-08T08:03:06.097Z,51.50
2022-12-08T08:05:33.023Z,51.70
2022-12-08T08:08:00.348Z,51.90
2022-12-08T08:10:27.266Z,51.90
2022-12-08T08:12:54.695Z,52.50
2022-12-08T08:15:23.898Z,52.00
2022-12-08T08:17:51.596Z,52.00
2022-12-08T08:20:19.636Z,52.00
2022-12-08T08:22:48.476Z,52.10
2022-12-08T08:25:15.896Z,52.00
2022-12-08T08:27:43.615Z,52.10
2022-12-08T08:30:18.127Z,52.10
2022-12-08T08:32:47.165Z,52.20
2022-12-08T08:35:14.074Z,52.20
2022-12-08T08:37:45.574Z,52.20
2022-12-08T08:40:15.498Z,52.30
2022-12-08T08:42:44.478Z,46.30
2022-12-08T08:45:12.200Z,48.40
2022-12-08T08:47:38.978Z,52.10
2022-12-08T08:50:06.780Z,52.10
2022-12-08T08:52:33.849Z,52.10
2022-12-08T08:55:00.627Z,51.80
2022-12-08T08:57:27.508Z,49.80
2022-12-08T08:59:54.491Z,51.50
2022-12-08T09:02:21.617Z,51.80
2022-12-08T09:04:48.693Z,51.80
2022-12-08T09:07:16.085Z,51.80
2022-12-08T09:09:43.262Z,52.10
2022-12-08T09:12:10.613Z,52.10
2022-12-08T09:14:38.018Z,52.00
2022-12-08T09:17:05.806Z,52.00
2022-12-08T09:19:32.594Z,52.00
2022-12-08T09:21:59.364Z,52.00
2022-12-08T09:24:26.628Z,52.10
2022-12-08T09:26:53.397Z,52.00
2022-12-08T09:29:20.230Z,51.60
2022-12-08T09:31:47.145Z,51.90
2022-12-08T09:34:14.509Z,52.00
2022-12-08T09:36:41.784Z,51.80
2022-12-08T09:39:09.550Z,52.20
2022-12-08T09:41:48.285Z,52.40
2022-12-08T09:44:24.180Z,52.40
2022-12-08T09:46:55.293Z,52.40
2022-12-08T09:49:38.580Z,52.40
2022-12-08T09:52:11.055Z,52.40
2022-12-08T09:54:37.833Z,52.40
2022-12-08T09:57:14.811Z,52.50
2022-12-08T09:59:47.402Z,52.50
2022-12-08T10:02:26.286Z,52.60
2022-12-08T10:04:56.825Z,52.60
2022-12-08T10:07:23.590Z,52.70
2022-12-08T10:10:02.087Z,52.80
2022-12-08T10:13:01.930Z,52.80
2022-12-08T10:15:40.606Z,53.40
2022-12-08T10:18:25.320Z,53.30
2022-12-08T10:20:52.841Z,53.80
2022-12-08T10:23:35.255Z,53.20
2022-12-08T10:26:08.053Z,53.30
2022-12-08T10:28:38.768Z,53.30
2022-12-08T10:31:16.144Z,53.30
2022-12-08T10:33:43.743Z,53.40
2022-12-08T10:36:11.605Z,53.50
2022-12-08T10:38:40.097Z,53.50
2022-12-08T10:41:11.628Z,53.90
2022-12-08T10:43:42.580Z,54.10
2022-12-08T10:46:26.257Z,54.40
2022-12-08T10:48:54.395Z,54.30
2022-12-08T10:51:26.785Z,54.10
2022-12-08T10:53:53.730Z,54.30
2022-12-08T10:56:25.715Z,55.40
2022-12-08T10:59:06.693Z,55.00
2022-12-08T11:01:38.937Z,55.20
2022-12-08T11:04:13.333Z,55.10
2022-12-08T11:06:41.431Z,55.10
2022-12-08T11:09:20.438Z,54.90
2022-12-08T11:11:50.235Z,54.90
2022-12-08T11:14:16.912Z,54.90
2022-12-08T11:16:44.113Z,51.60
2022-12-08T11:19:16.942Z,54.20
2022-12-08T11:21:44.532Z,54.60
2022-12-08T11:24:23.866Z,54.70
2022-12-08T11:26:52.761Z,54.70
2022-12-08T11:29:20.799Z,54.90
2022-12-08T11:31:57.420Z,54.20
2022-12-08T11:34:35.241Z,56.80
2022-12-08T11:37:07.970Z,55.40
2022-12-08T11:39:39.578Z,53.40
2022-12-08T11:42:07.878Z,54.50
2022-12-08T11:44:42.279Z,55.10
2022-12-08T11:47:26.353Z,55.40
2022-12-08T11:50:16.660Z,55.40
2022-12-08T11:52:50.210Z,55.00
2022-12-08T11:55:37.286Z,52.50
2022-12-08T11:58:21.245Z,54.40
2022-12-08T12:00:49.161Z,54.90
2022-12-08T12:04:08.275Z,55.90
2022-12-08T12:06:54.658Z,55.90
2022-12-08T12:10:19.290Z,58.10
2022-12-08T12:13:12.470Z,56.20
2022-12-08T12:15:54.533Z,51.20
2022-12-08T12:18:29.408Z,48.80
2022-12-08T12:21:12.717Z,49.00
2022-12-08T12:23:48.787Z,53.80
2022-12-08T12:26:31.026Z,53.70
2022-12-08T12:29:20.129Z,53.20
2022-12-08T12:31:51.842Z,54.10
2022-12-08T12:34:23.920Z,55.00
2022-12-08T12:36:52.874Z,55.10
2022-12-08T12:39:24.747Z,54.30
2022-12-08T12:41:58.091Z,52.60
2022-12-08T12:44:38.279Z,50.50
2022-12-08T12:47:11.085Z,49.90
2022-12-08T12:49:40.866Z,49.20
2022-12-08T12:52:16.620Z,48.80
2022-12-08T12:54:49.795Z,48.70
2022-12-08T12:57:19.330Z,48.40
2022-12-08T13:00:06.585Z,48.30
2022-12-08T13:02:55.507Z,48.30
2022-12-08T13:05:29.327Z,47.90
2022-12-08T13:08:07.725Z,47.80
2022-12-08T13:10:36.691Z,47.80
2022-12-08T13:13:03.420Z,47.80
2022-12-08T13:16:19.160Z,47.70
2022-12-08T13:18:51.188Z,47.70
2022-12-08T13:21:23.807Z,47.60
2022-12-08T13:24:04.196Z,47.50
2022-12-08T13:26:30.995Z,47.40
2022-12-08T13:29:11.273Z,47.30
2022-12-08T13:31:46.640Z,46.60
2022-12-08T13:34:54.461Z,47.80
2022-12-08T13:37:54.433Z,48.40
2022-12-08T13:40:28.086Z,48.70
2022-12-08T13:43:15.999Z,49.20
2022-12-08T13:50:49.592Z,48.50
2022-12-08T13:57:34.744Z,47.10
2022-12-08T14:00:05.170Z,47.30
2022-12-08T14:02:47.894Z,52.30
2022-12-08T14:05:40.696Z,50.20
2022-12-08T14:08:06.937Z,51.20
2022-12-08T14:10:33.867Z,51.80
2022-12-08T14:13:06.358Z,51.30
2022-12-08T14:15:38.403Z,51.70
2022-12-08T14:18:07.260Z,52.30
2022-12-08T14:20:57.769Z,52.40
2022-12-08T14:23:22.418Z,52.50
2022-12-08T14:25:49.355Z,53.60
2022-12-08T14:28:17.063Z,53.20
2022-12-08T14:30:44.127Z,53.30
2022-12-08T14:33:16.861Z,53.50
2022-12-08T14:35:50.648Z,53.50
2022-12-08T14:38:19.386Z,53.60
2022-12-08T14:41:07.898Z,53.60
2022-12-08T14:43:35.603Z,53.60
2022-12-08T14:46:06.339Z,53.80
2022-12-08T14:48:39.267Z,53.40
2022-12-08T14:51:20.763Z,53.20
2022-12-08T14:54:09.826Z,52.10
2022-12-08T14:56:38.107Z,51.80
2022-12-08T14:59:12.747Z,52.40
2022-12-08T15:01:40.751Z,52.70
2022-12-08T15:04:13.855Z,52.80
2022-12-08T15:07:02.604Z,53.20
2022-12-08T15:09:37.603Z,53.40
2022-12-08T15:12:27.506Z,54.20
2022-12-08T15:15:16.490Z,54.10
2022-12-08T15:17:44.964Z,54.30
2022-12-08T15:20:35.600Z,54.50
2022-12-08T15:23:03.046Z,54.70
2022-12-08T15:25:29.997Z,54.80
2022-12-08T15:27:57.920Z,54.80
2022-12-08T15:30:28.752Z,54.90
2022-12-08T15:32:56.411Z,54.90
2022-12-08T15:35:23.342Z,55.00
2022-12-08T15:37:50.163Z,55.10
2022-12-08T15:40:20.181Z,55.10
2022-12-08T15:42:47.107Z,55.10
2022-12-08T15:45:15.394Z,55.10
2022-12-08T15:47:42.800Z,55.10
2022-12-08T15:50:21.628Z,55.20
2022-12-08T15:52:50.007Z,55.20
2022-12-08T15:55:19.546Z,55.30
2022-12-08T15:58:51.730Z,55.30
2022-12-08T16:00:54.372Z,55.30
2022-12-08T16:09:14.547Z,55.40
2022-12-08T16:12:09.632Z,54.30
2022-12-08T16:17:28.897Z,54.60
2022-12-08T16:19:56.114Z,54.40
2022-12-08T16:25:18.668Z,54.80
2022-12-08T16:28:17.301Z,55.00
2022-12-08T16:30:33.905Z,55.00
2022-12-08T16:33:00.664Z,55.10
2022-12-08T16:35:27.436Z,55.10
2022-12-08T16:37:54.272Z,55.00
2022-12-08T16:40:21.077Z,55.00
2022-12-08T16:42:49.905Z,55.20
2022-12-08T16:45:22.801Z,55.20
2022-12-08T16:47:50.783Z,55.70
2022-12-08T16:50:20.529Z,55.10
2022-12-08T16:52:48.252Z,55.10
2022-12-08T16:55:17.918Z,55.00
2022-12-08T16:57:45.597Z,55.10
2022-12-08T17:00:16.013Z,55.10
2022-12-08T17:02:43.557Z,55.40
2022-12-08T17:05:13.786Z,55.10
2022-12-08T17:07:44.642Z,55.00
2022-12-08T17:10:14.855Z,55.00
2022-12-08T17:12:41.914Z,54.80
2022-12-08T17:15:12.008Z,54.70
2022-12-08T17:17:39.510Z,54.90
2022-12-08T17:20:09.416Z,54.80
2022-12-08T17:22:36.477Z,54.60
2022-12-08T17:25:04.322Z,54.50
2022-12-08T17:27:31.230Z,54.40
2022-12-08T17:29:58.106Z,54.40
2022-12-08T17:32:25.560Z,54.30
2022-12-08T17:34:52.498Z,54.30
2022-12-08T17:37:19.972Z,54.20
2022-12-08T17:39:46.787Z,54.20
2022-12-08T17:42:13.579Z,54.20
2022-12-08T17:44:40.347Z,51.60
2022-12-08T17:47:07.150Z,53.20
2022-12-08T17:49:34.176Z,53.70
2022-12-08T17:52:03.974Z,53.90
2022-12-08T17:54:31.073Z,54.00
2022-12-08T17:56:59.115Z,54.00
2022-12-08T17:59:27.766Z,54.00
2022-12-08T18:01:55.857Z,54.00
2022-12-08T18:04:23.008Z,54.00
2022-12-08T18:06:52.312Z,54.00
2022-12-08T18:09:19.430Z,54.00
2022-12-08T18:11:46.871Z,54.00
2022-12-08T18:14:14.949Z,54.00
2022-12-08T18:16:44.547Z,54.00
2022-12-08T18:19:12.649Z,54.10
2022-12-08T18:21:39.988Z,54.00
2022-12-08T18:24:08.188Z,54.00
2022-12-08T18:26:34.931Z,54.00
2022-12-08T18:29:01.863Z,53.90
2022-12-08T18:31:29.155Z,53.90
2022-12-08T18:33:55.894Z,53.80
2022-12-08T18:36:24.958Z,53.90
2022-12-08T18:38:52.973Z,53.80
2022-12-08T18:41:25.994Z,53.80
2022-12-08T18:43:54.500Z,53.80
2022-12-08T18:46:22.208Z,53.80
2022-12-08T18:48:50.548Z,53.80
2022-12-08T18:51:22.972Z,53.70
2022-12-08T18:53:50.097Z,53.70
2022-12-08T18:56:35.988Z,53.70
2022-12-08T18:59:06.208Z,53.70
2022-12-08T19:01:35.441Z,53.70
2022-12-08T19:04:27.243Z,53.70
2022-12-08T19:06:53.129Z,53.70
2022-12-08T19:09:22.798Z,53.70
2022-12-08T19:11:49.652Z,53.60
2022-12-08T19:14:16.678Z,53.50
2022-12-08T19:16:43.525Z,53.50
2022-12-08T19:19:10.265Z,53.50
2022-12-08T19:21:42.899Z,53.50
2022-12-08T19:24:13.328Z,53.40
2022-12-08T19:26:40.315Z,53.40
2022-12-08T19:29:07.204Z,53.40
2022-12-08T19:31:34.127Z,53.40
2022-12-08T19:34:01.163Z,53.30
2022-12-08T19:36:30.723Z,53.30
2022-12-08T19:39:16.213Z,53.30
2022-12-08T19:42:12.359Z,53.30
2022-12-08T19:44:54.592Z,53.30
2022-12-08T19:47:24.597Z,53.30
2022-12-08T19:49:55.011Z,53.30
2022-12-08T19:52:22.903Z,53.20
2022-12-08T19:54:49.689Z,53.20
2022-12-08T19:57:16.460Z,53.10
2022-12-08T19:59:43.298Z,53.20
2022-12-08T20:02:11.129Z,53.10
2022-12-08T20:04:38.024Z,53.10
2022-12-08T20:07:04.794Z,53.10
2022-12-08T20:09:31.642Z,53.00
2022-12-08T20:11:58.397Z,53.00
2022-12-08T20:14:25.362Z,53.00
2022-12-08T20:16:52.249Z,53.00
2022-12-08T20:19:19.206Z,53.00
2022-12-08T20:21:46.289Z,53.00
2022-12-08T20:24:13.043Z,53.00
2022-12-08T20:26:39.899Z,52.90
2022-12-08T20:29:06.811Z,52.90
2022-12-08T20:31:33.985Z,52.90
2022-12-08T20:34:01.094Z,52.90
2022-12-08T20:36:28.426Z,52.90
2022-12-08T20:38:57.543Z,52.80
2022-12-08T20:41:26.762Z,52.80
2022-12-08T20:43:54.275Z,52.80
2022-12-08T20:46:21.879Z,52.80
2022-12-08T20:48:48.882Z,52.80
2022-12-08T20:51:18.860Z,52.80
2022-12-08T20:53:46.414Z,52.70
2022-12-08T20:56:22.365Z,52.70
2022-12-08T20:58:50.067Z,52.80
2022-12-08T21:01:20.050Z,52.70
2022-12-08T21:03:48.359Z,52.80
2022-12-08T21:06:16.645Z,52.70
2022-12-08T21:08:43.556Z,52.70
2022-12-08T21:11:11.709Z,52.70
2022-12-08T21:13:39.427Z,52.70
2022-12-08T21:16:09.284Z,52.60
2022-12-08T21:18:39.773Z,52.70
2022-12-08T21:21:11.365Z,53.10
2022-12-08T21:23:41.126Z,52.60
2022-12-08T21:26:17.207Z,52.60
2022-12-08T21:28:44.136Z,52.50
2022-12-08T21:31:15.466Z,52.60
2022-12-08T21:33:42.811Z,52.60
2022-12-08T21:36:16.519Z,52.50
2022-12-08T21:38:44.552Z,52.40
2022-12-08T21:41:15.836Z,52.50
2022-12-08T21:43:43.213Z,52.50
2022-12-08T21:46:17.192Z,52.50
2022-12-08T21:48:44.446Z,52.40
2022-12-08T21:51:11.914Z,52.40
2022-12-08T21:53:39.300Z,52.40
2022-12-08T21:56:09.875Z,52.40
2022-12-08T21:58:37.308Z,52.30
2022-12-08T22:01:12.415Z,52.40
2022-12-08T22:03:40.032Z,52.30
2022-12-08T22:06:13.102Z,52.30
2022-12-08T22:08:40.752Z,52.30
2022-12-08T22:11:08.739Z,52.20
2022-12-08T22:13:40.513Z,52.30
2022-12-08T22:16:10.498Z,52.20
2022-12-08T22:18:37.830Z,52.20
2022-12-08T22:21:10.255Z,52.20
2022-12-08T22:23:37.750Z,52.20
2022-12-08T22:26:04.836Z,52.30
2022-12-08T22:28:37.402Z,52.20
2022-12-08T22:31:16.614Z,52.20
2022-12-08T22:33:44.280Z,52.20
2022-12-08T22:36:20.759Z,52.10
2022-12-08T22:38:48.030Z,52.10
2022-12-08T22:41:15.630Z,52.10
2022-12-08T22:43:43.154Z,52.00
2022-12-08T22:46:12.894Z,52.00
2022-12-08T22:48:40.048Z,52.10
2022-12-08T22:51:07.263Z,52.00
2022-12-08T22:53:34.152Z,52.00
2022-12-08T22:56:04.567Z,52.00
2022-12-08T22:58:31.560Z,52.00
2022-12-08T23:00:58.571Z,52.00
2022-12-08T23:03:25.491Z,51.90
2022-12-08T23:05:52.603Z,52.00
2022-12-08T23:08:19.523Z,52.00
2022-12-08T23:10:47.141Z,51.90
2022-12-08T23:13:14.726Z,51.90
2022-12-08T23:15:41.796Z,51.90
2022-12-08T23:18:12.445Z,51.90
2022-12-08T23:20:39.482Z,51.90
2022-12-08T23:23:06.459Z,51.90
2022-12-08T23:25:33.278Z,51.80
2022-12-08T23:28:00.304Z,51.80
2022-12-08T23:30:27.330Z,51.90
2022-12-08T23:32:57.324Z,51.80
2022-12-08T23:35:24.230Z,51.80
2022-12-08T23:37:51.280Z,51.80
2022-12-08T23:40:18.236Z,51.80
2022-12-08T23:42:45.060Z,51.80
2022-12-08T23:45:14.132Z,51.70
2022-12-08T23:47:40.890Z,51.80
2022-12-08T23:50:08.655Z,51.80
2022-12-08T23:52:35.716Z,51.70
2022-12-08T23:55:03.141Z,51.80
2022-12-08T23:57:30.085Z,51.80
2022-12-08T23:59:57.031Z,51.70
